Time;durP1;ratioP1;P1;durP2;ratioP2;P2;SDS_P1;SDS_P2;PMS_P1;PMS_P2;Temp;Humidity;BMP_temperature;BMP_pressure;BME280_temperature;BME280_humidity;BME280_pressure;Samples;Min_cycle;Max_cycle;Signal;HPM_P1;HPM_P2
2021/01/02 00:01:19;;;;;;;47.98;21.68;;;;;;;-0.46;85.16;100099.70;1767622;81;25774;-59
2021/01/02 00:04:09;;;;;;;50.78;23.38;;;;;;;-0.48;85.16;100099.12;1767868;81;25725;-61
2021/01/02 00:06:58;;;;;;;53.15;25.08;;;;;;;-0.45;85.23;100107.15;1767420;81;26511;-64
2021/01/02 00:09:28;;;;;;;59.65;24.57;;;;;;;-0.46;85.29;100119.64;1767635;81;25782;-64
2021/01/02 00:12:06;;;;;;;54.35;24.55;;;;;;;-0.45;85.22;100115.13;1778384;80;25919;-65
2021/01/02 00:14:53;;;;;;;58.60;25.37;;;;;;;-0.46;85.22;100113.00;1778834;80;25907;-62
2021/01/02 00:17:43;;;;;;;58.83;24.12;;;;;;;-0.44;85.27;100110.90;1775161;80;26443;-58
2021/01/02 00:20:59;;;;;;;48.35;23.12;;;;;;;-0.45;85.30;100119.91;1779642;80;25741;-62
2021/01/02 00:23:55;;;;;;;55.58;23.92;;;;;;;-0.45;85.29;100126.55;1779973;80;25950;-65
2021/01/02 00:26:44;;;;;;;52.30;23.52;;;;;;;-0.43;85.36;100131.63;1775792;80;26705;-66
2021/01/02 00:29:19;;;;;;;53.55;22.77;;;;;;;-0.45;85.26;100136.38;1779771;80;25702;-64
2021/01/02 00:32:09;;;;;;;60.95;25.60;;;;;;;-0.47;85.29;100139.80;1780009;80;25837;-65
2021/01/02 00:34:56;;;;;;;57.45;23.00;;;;;;;-0.46;85.38;100140.90;1780007;80;25813;-64
2021/01/02 00:37:43;;;;;;;55.95;25.20;;;;;;;-0.45;85.43;100137.70;1778890;80;25783;-65
2021/01/02 00:40:19;;;;;;;53.40;24.10;;;;;;;-0.46;85.41;100146.21;1779786;80;27178;-66
2021/01/02 00:42:48;;;;;;;52.15;23.55;;;;;;;-0.44;85.50;100153.41;1779975;80;25796;-64
2021/01/02 00:45:22;;;;;;;62.85;25.70;;;;;;;-0.44;85.43;100164.58;1766824;80;25740;-64
2021/01/02 00:47:50;;;;;;;58.63;25.88;;;;;;;-0.44;85.47;100168.03;1752974;81;25751;-62
2021/01/02 00:50:20;;;;;;;60.12;24.23;;;;;;;-0.44;85.47;100166.70;1758784;81;25846;-54
2021/01/02 00:53:07;;;;;;;53.23;24.37;;;;;;;-0.43;85.50;100162.98;1761134;81;25855;-59
2021/01/02 00:55:58;;;;;;;60.67;26.75;;;;;;;-0.41;85.47;100163.58;1761516;81;25672;-63
2021/01/02 00:59:04;;;;;;;56.37;23.40;;;;;;;-0.40;85.50;100163.84;1761730;81;25603;-58
2021/01/02 01:01:38;;;;;;;57.43;25.10;;;;;;;-0.38;85.54;100168.39;1761474;81;25985;-64
2021/01/02 01:04:50;;;;;;;57.20;25.55;;;;;;;-0.38;85.52;100165.73;1761477;81;25976;-62
2021/01/02 01:07:19;;;;;;;53.02;24.18;;;;;;;-0.39;85.49;100157.49;1761581;81;27341;-63
2021/01/02 01:09:50;;;;;;;57.15;24.80;;;;;;;-0.39;85.45;100164.67;1761663;81;25454;-60
2021/01/02 01:12:20;;;;;;;58.75;25.62;;;;;;;-0.40;85.49;100165.70;1762514;81;25639;-61
2021/01/02 01:14:47;;;;;;;53.00;24.72;;;;;;;-0.38;85.61;100160.95;1763026;81;25662;-60
2021/01/02 01:17:21;;;;;;;57.35;26.25;;;;;;;-0.39;85.58;100160.15;1762998;81;25669;-57
2021/01/02 01:19:54;;;;;;;49.93;24.18;;;;;;;-0.38;85.59;100162.28;1762739;81;25998;-51
2021/01/02 01:22:25;;;;;;;59.60;24.90;;;;;;;-0.37;85.58;100153.27;1763015;81;26321;-59
2021/01/02 01:25:06;;;;;;;56.30;23.77;;;;;;;-0.34;85.69;100159.94;1762729;81;26248;-50
2021/01/02 01:27:54;;;;;;;56.83;25.62;;;;;;;-0.32;85.74;100161.33;1763027;81;26250;-65
2021/01/02 01:30:22;;;;;;;58.13;25.30;;;;;;;-0.30;85.61;100159.77;1763250;81;25661;-52
2021/01/02 01:33:02;;;;;;;53.28;24.75;;;;;;;-0.30;85.61;100159.77;1762984;81;25715;-55
2021/01/02 01:35:30;;;;;;;57.98;25.37;;;;;;;-0.30;85.53;100153.91;1761352;81;26331;-50
2021/01/02 01:37:59;;;;;;;55.58;26.23;;;;;;;-0.32;85.42;100152.03;1763088;81;25561;-64
2021/01/02 01:40:30;;;;;;;64.62;27.32;;;;;;;-0.33;85.40;100156.25;1762948;81;25647;-59
2021/01/02 01:43:06;;;;;;;52.58;24.87;;;;;;;-0.34;85.44;100155.45;1763139;81;25769;-65
2021/01/02 01:46:09;;;;;;;54.77;23.90;;;;;;;-0.34;85.48;100154.63;1763022;81;25724;-51
2021/01/02 01:48:55;;;;;;;59.45;26.42;;;;;;;-0.35;85.48;100161.80;1762767;81;25656;-54
2021/01/02 01:52:00;;;;;;;59.05;25.45;;;;;;;-0.36;85.55;100152.20;1760822;81;25854;-64
2021/01/02 01:54:58;;;;;;;50.48;23.75;;;;;;;-0.35;85.60;100141.87;1762931;81;25643;-49
2021/01/02 01:57:27;;;;;;;62.95;26.12;;;;;;;-0.34;85.57;100137.35;1763016;81;25627;-45
2021/01/02 02:00:08;;;;;;;53.25;24.52;;;;;;;-0.37;85.56;100151.94;1763141;81;26177;-46
2021/01/02 02:02:46;;;;;;;57.50;24.65;;;;;;;-0.36;85.58;100152.20;1762915;81;25716;-53
2021/01/02 02:05:20;;;;;;;60.75;23.65;;;;;;;-0.35;85.60;100155.16;1762913;81;25679;-54
2021/01/02 02:08:03;;;;;;;54.18;25.70;;;;;;;-0.35;85.54;100164.46;1762843;81;26328;-53
2021/01/02 02:10:46;;;;;;;55.67;23.47;;;;;;;-0.36;85.58;100160.70;1763004;81;25593;-46
2021/01/02 02:13:20;;;;;;;55.70;24.52;;;;;;;-0.36;85.59;100159.38;1763063;81;25910;-47
2021/01/02 02:15:52;;;;;;;53.02;24.07;;;;;;;-0.35;85.67;100163.66;1762870;81;25612;-50
2021/01/02 02:18:23;;;;;;;52.35;23.80;;;;;;;-0.35;85.58;100162.33;1762937;81;25612;-52
2021/01/02 02:20:53;;;;;;;56.45;24.15;;;;;;;-0.36;85.62;100155.39;1726703;82;25586;-56
2021/01/02 02:23:43;;;;;;;50.03;22.85;;;;;;;-0.38;85.53;100155.10;1722473;83;25643;-53
2021/01/02 02:26:30;;;;;;;52.70;24.12;;;;;;;-0.40;85.53;100153.21;1705253;84;25793;-52
2021/01/02 02:29:18;;;;;;;59.85;25.55;;;;;;;-0.39;85.63;100156.16;1704834;84;25737;-53
2021/01/02 02:31:45;;;;;;;54.40;23.55;;;;;;;-0.39;85.65;100155.37;1704920;84;25732;-53
2021/01/02 02:34:14;;;;;;;55.40;24.82;;;;;;;-0.39;85.70;100162.02;1705126;84;25776;-52
2021/01/02 02:36:43;;;;;;;57.35;24.55;;;;;;;-0.39;85.77;100162.81;1705048;84;25664;-45
2021/01/02 02:39:13;;;;;;;55.73;25.50;;;;;;;-0.37;85.82;100157.25;1705061;84;25743;-42
2021/01/02 02:41:48;;;;;;;62.88;26.77;;;;;;;-0.35;85.83;100161.80;1704974;84;25692;-48
2021/01/02 02:44:24;;;;;;;55.83;25.15;;;;;;;-0.34;85.83;100164.76;1726001;82;25694;-45
2021/01/02 02:46:55;;;;;;;56.28;24.50;;;;;;;-0.31;85.87;100170.90;1722468;83;25796;-52
2021/01/02 02:49:24;;;;;;;56.25;23.67;;;;;;;-0.33;85.80;100162.89;1705110;84;25578;-52
2021/01/02 02:52:30;;;;;;;58.80;24.60;;;;;;;-0.31;85.67;100177.55;1705125;84;25793;-47
2021/01/02 02:54:59;;;;;;;57.25;23.15;;;;;;;-0.35;85.52;100180.41;1704923;84;25718;-51
2021/01/02 02:57:29;;;;;;;54.20;23.22;;;;;;;-0.39;85.51;100176.09;1705334;84;25730;-55
2021/01/02 02:59:57;;;;;;;54.83;24.57;;;;;;;-0.42;85.57;100183.21;1705202;84;25745;-54
2021/01/02 03:02:26;;;;;;;56.60;24.23;;;;;;;-0.44;85.61;100182.65;1705225;84;25589;-54
2021/01/02 03:04:53;;;;;;;56.92;23.67;;;;;;;-0.45;85.67;100179.70;1705333;84;25721;-53
2021/01/02 03:07:20;;;;;;;56.25;23.47;;;;;;;-0.48;85.67;100176.72;1705162;84;25616;-54
2021/01/02 03:09:49;;;;;;;57.88;24.67;;;;;;;-0.50;85.73;100170.84;1705201;84;25760;-55
2021/01/02 03:12:15;;;;;;;51.45;24.60;;;;;;;-0.51;85.72;100175.86;1697671;84;25808;-55
2021/01/02 03:14:42;;;;;;;58.52;24.52;;;;;;;-0.51;85.83;100167.88;1692148;84;25662;-51
2021/01/02 03:17:09;;;;;;;60.10;24.27;;;;;;;-0.51;85.90;100167.38;1707823;84;26692;-47
2021/01/02 03:19:36;;;;;;;54.80;24.72;;;;;;;-0.49;85.96;100170.60;1707546;84;25649;-48
2021/01/02 03:22:03;;;;;;;62.65;25.60;;;;;;;-0.47;86.04;100183.66;1707706;84;25614;-55
2021/01/02 03:24:29;;;;;;;57.70;25.43;;;;;;;-0.51;85.96;100173.20;1707762;84;26234;-55
2021/01/02 03:26:56;;;;;;;58.45;23.73;;;;;;;-0.46;85.99;100190.06;1707776;84;25708;-44
2021/01/02 03:29:23;;;;;;;59.03;24.82;;;;;;;-0.46;85.98;100186.58;1707702;84;26170;-54
2021/01/02 03:31:50;;;;;;;62.43;25.97;;;;;;;-0.45;85.98;100189.53;1707657;83;25653;-56
2021/01/02 03:34:17;;;;;;;66.72;27.50;;;;;;;-0.45;86.04;100190.33;1707668;83;25672;-56
2021/01/02 03:36:44;;;;;;;56.55;25.40;;;;;;;-0.44;86.00;100185.31;1707679;84;25616;-56
2021/01/02 03:39:11;;;;;;;58.30;26.37;;;;;;;-0.43;86.03;100189.56;1707781;84;25601;-56
2021/01/02 03:41:38;;;;;;;62.13;26.48;;;;;;;-0.41;86.09;100184.84;1707669;84;25697;-56
2021/01/02 03:44:05;;;;;;;57.83;26.23;;;;;;;-0.40;86.05;100184.30;1707649;84;26326;-44
2021/01/02 03:46:32;;;;;;;63.02;26.35;;;;;;;-0.36;86.16;100184.63;1707723;84;25647;-50
2021/01/02 03:48:58;;;;;;;59.70;25.85;;;;;;;-0.35;86.00;100178.28;1707626;84;25660;-55
2021/01/02 03:51:26;;;;;;;62.48;26.17;;;;;;;-0.34;86.04;100183.36;1707702;83;26413;-48
2021/01/02 03:53:53;;;;;;;57.53;26.17;;;;;;;-0.33;85.97;100186.28;1707416;83;25787;-54
2021/01/02 03:56:20;;;;;;;65.22;25.95;;;;;;;-0.35;85.84;100192.91;1707672;84;25672;-54
2021/01/02 03:58:51;;;;;;;64.60;26.02;;;;;;;-0.39;85.77;100198.69;1707688;84;25629;-52
2021/01/02 04:01:18;;;;;;;62.15;25.55;;;;;;;-0.38;85.90;100202.94;1707656;84;25829;-46
2021/01/02 04:03:45;;;;;;;60.83;26.27;;;;;;;-0.38;85.93;100210.91;1707718;84;25616;-49
2021/01/02 04:06:12;;;;;;;56.48;25.35;;;;;;;-0.38;85.96;100207.45;1707661;84;26174;-49
2021/01/02 04:08:39;;;;;;;57.05;25.10;;;;;;;-0.39;85.88;100206.66;1707527;83;25708;-49
2021/01/02 04:11:05;;;;;;;61.05;26.40;;;;;;;-0.39;85.99;100209.84;1707634;84;25648;-55
2021/01/02 04:13:32;;;;;;;67.15;25.97;;;;;;;-0.39;86.11;100206.66;1706618;83;25665;-55
2021/01/02 04:15:59;;;;;;;60.58;26.77;;;;;;;-0.36;86.14;100215.20;1706654;84;25713;-50
2021/01/02 04:18:25;;;;;;;65.60;27.77;;;;;;;-0.35;86.12;100216.29;1706670;84;26212;-52
2021/01/02 04:20:52;;;;;;;65.03;27.45;;;;;;;-0.33;86.13;100217.38;1706586;84;25721;-54
2021/01/02 04:23:20;;;;;;;58.38;27.20;;;;;;;-0.32;86.15;100217.65;1706615;84;25614;-46
2021/01/02 04:25:46;;;;;;;65.67;27.25;;;;;;;-0.32;86.16;100213.16;1706636;84;25656;-44
2021/01/02 04:28:13;;;;;;;64.65;26.65;;;;;;;-0.29;86.07;100210.53;1706718;84;25685;-50
2021/01/02 04:30:40;;;;;;;63.63;28.38;;;;;;;-0.32;85.98;100214.48;1706587;84;26757;-54
2021/01/02 04:33:07;;;;;;;67.47;27.27;;;;;;;-0.32;86.03;100212.33;1706623;84;26262;-44
2021/01/02 04:35:33;;;;;;;66.45;28.55;;;;;;;-0.31;86.09;100208.11;1706643;84;25706;-51
2021/01/02 04:38:01;;;;;;;65.92;27.00;;;;;;;-0.31;86.06;100209.44;1706620;84;25633;-53
2021/01/02 04:40:28;;;;;;;73.47;29.65;;;;;;;-0.29;86.14;100213.19;1706673;84;25712;-47
2021/01/02 04:42:55;;;;;;;65.20;27.82;;;;;;;-0.31;86.08;100207.31;1706660;84;25781;-44
2021/01/02 04:45:24;;;;;;;66.02;29.82;;;;;;;-0.29;86.10;100207.88;1706594;84;25689;-55
2021/01/02 04:47:53;;;;;;;67.80;28.87;;;;;;;-0.30;86.10;100208.94;1706791;84;25734;-46
2021/01/02 04:50:21;;;;;;;70.50;28.12;;;;;;;-0.31;86.10;100216.62;1706662;84;25682;-54
2021/01/02 04:52:51;;;;;;;67.10;27.85;;;;;;;-0.32;86.12;100219.81;1706609;84;26347;-47
2021/01/02 04:55:21;;;;;;;68.05;26.35;;;;;;;-0.30;86.22;100220.90;1682395;84;26461;-49
2021/01/02 04:57:50;;;;;;;71.20;28.47;;;;;;;-0.32;86.16;100222.47;1706553;84;25629;-53
2021/01/02 05:00:19;;;;;;;70.70;29.00;;;;;;;-0.30;86.24;100229.67;1706879;84;25715;-48
2021/01/02 05:02:47;;;;;;;72.37;29.15;;;;;;;-0.30;86.26;100238.18;1706775;84;25679;-46
2021/01/02 05:05:13;;;;;;;71.35;27.87;;;;;;;-0.32;86.25;100230.94;1706612;84;25676;-54
2021/01/02 05:07:40;;;;;;;68.40;27.70;;;;;;;-0.34;86.22;100237.02;1706633;84;25740;-45
2021/01/02 05:10:09;;;;;;;65.55;27.37;;;;;;;-0.36;86.20;100237.25;1706499;84;25720;-55
2021/01/02 05:12:36;;;;;;;59.20;26.67;;;;;;;-0.38;86.29;100248.66;1706716;83;26533;-51
2021/01/02 05:15:13;;;;;;;71.92;30.37;;;;;;;-0.38;86.29;100248.66;1706588;84;25689;-51
2021/01/02 05:17:41;;;;;;;62.70;27.22;;;;;;;-0.39;86.34;100253.70;1706731;84;25652;-54
2021/01/02 05:20:15;;;;;;;67.78;28.32;;;;;;;-0.42;86.32;100250.19;1706705;84;25918;-49
2021/01/02 05:22:43;;;;;;;63.23;26.12;;;;;;;-0.44;86.36;100246.43;1706483;83;25828;-47
2021/01/02 05:25:20;;;;;;;65.62;29.02;;;;;;;-0.46;86.37;100251.18;1706628;84;25625;-46
2021/01/02 05:27:50;;;;;;;65.70;27.27;;;;;;;-0.46;86.46;100248.52;1706600;84;25680;-47
2021/01/02 05:30:26;;;;;;;;;;;;;;;-0.44;86.61;100252.28;1709222;84;25624;-55
2021/01/02 05:33:09;;;;;;;72.37;28.30;;;;;;;-0.43;86.66;100252.02;1703125;84;26413;-48
2021/01/02 05:35:42;;;;;;;62.83;25.37;;;;;;;-0.44;86.61;100257.06;1706540;84;25680;-53
2021/01/02 05:38:25;;;;;;;57.48;23.60;;;;;;;-0.45;86.49;100254.64;1706619;84;25708;-50
2021/01/02 05:40:59;;;;;;;62.03;26.55;;;;;;;-0.47;86.45;100258.06;1706566;84;25688;-47
2021/01/02 05:43:29;;;;;;;59.60;26.40;;;;;;;-0.49;86.42;100261.48;1706662;84;25576;-53
2021/01/02 05:45:56;;;;;;;;;;;;;;;-0.50;86.51;100261.98;1709221;84;25921;-53
2021/01/02 05:48:28;;;;;;;63.68;26.52;;;;;;;-0.48;86.58;100267.86;1703349;84;25630;-55
2021/01/02 05:51:01;;;;;;;67.40;28.00;;;;;;;-0.48;86.62;100265.73;1703236;84;25658;-48
2021/01/02 05:53:35;;;;;;;67.42;27.73;;;;;;;-0.46;86.60;100272.44;1706651;82;25667;-48
2021/01/02 05:56:09;;;;;;;68.80;28.40;;;;;;;-0.45;86.60;100273.24;1706533;84;25707;-52
2021/01/02 05:58:41;;;;;;;65.70;27.35;;;;;;;-0.44;86.64;100280.18;1706679;84;26800;-56
2021/01/02 06:01:12;;;;;;;58.35;25.15;;;;;;;-0.44;86.57;100284.97;1706050;84;25685;-55
2021/01/02 06:03:45;;;;;;;61.75;26.05;;;;;;;-0.46;86.50;100289.72;1706212;84;25640;-54
2021/01/02 06:06:15;;;;;;;54.50;24.98;;;;;;;-0.49;86.37;100288.05;1706099;84;25685;-45
2021/01/02 06:08:49;;;;;;;56.63;25.80;;;;;;;-0.50;86.37;100291.74;1706654;84;25640;-50
2021/01/02 06:11:18;;;;;;;59.98;25.70;;;;;;;-0.53;86.44;100293.00;1706511;84;25700;-53
2021/01/02 06:13:49;;;;;;;58.05;26.07;;;;;;;-0.53;86.53;100285.56;1710043;83;26257;-54
2021/01/02 06:16:17;;;;;;;57.60;26.17;;;;;;;-0.52;86.57;100287.98;1711515;83;25643;-46
2021/01/02 06:18:46;;;;;;;60.55;26.35;;;;;;;-0.51;86.54;100290.95;1711428;83;25592;-54
2021/01/02 06:21:18;;;;;;;56.73;26.07;;;;;;;-0.50;86.55;100285.09;1711701;83;25709;-50
2021/01/02 06:23:48;;;;;;;61.25;27.22;;;;;;;-0.46;86.74;100291.55;1711427;83;25940;-55
2021/01/02 06:26:16;;;;;;;63.20;26.95;;;;;;;-0.51;86.49;100288.28;1711330;83;25704;-55
2021/01/02 06:28:45;;;;;;;60.52;27.37;;;;;;;-0.48;86.63;100297.09;1711471;83;25715;-54
2021/01/02 06:31:14;;;;;;;64.17;26.75;;;;;;;-0.45;86.68;100303.27;1711650;83;25699;-47
2021/01/02 06:33:49;;;;;;;60.78;26.95;;;;;;;-0.43;86.57;100301.70;1711625;83;26003;-50
2021/01/02 06:36:36;;;;;;;64.70;26.93;;;;;;;-0.42;86.54;100306.80;1711688;83;26876;-53
2021/01/02 06:39:27;;;;;;;55.10;25.62;;;;;;;-0.41;86.46;100308.42;1711562;83;26112;-44
2021/01/02 06:41:55;;;;;;;57.43;24.92;;;;;;;-0.39;86.45;100310.84;1711781;83;25686;-45
2021/01/02 06:44:43;;;;;;;60.25;26.45;;;;;;;-0.41;86.32;100316.39;1711478;83;25685;-53
2021/01/02 06:47:23;;;;;;;57.38;26.00;;;;;;;-0.43;86.23;100311.81;1711664;83;25687;-44
2021/01/02 06:49:54;;;;;;;55.85;25.25;;;;;;;-0.42;86.29;100315.30;1711771;83;26755;-43
2021/01/02 06:52:35;;;;;;;57.35;24.32;;;;;;;-0.43;86.34;100313.67;1711488;83;25700;-54
2021/01/02 06:55:24;;;;;;;50.08;23.05;;;;;;;-0.42;86.36;100321.94;1711645;83;25621;-44
2021/01/02 06:57:56;;;;;;;57.53;24.35;;;;;;;-0.45;86.25;100327.72;1653540;86;25654;-47
2021/01/02 07:00:35;;;;;;;54.00;24.77;;;;;;;-0.37;86.25;100328.69;1887336;76;33253;-44
2021/01/02 07:03:02;;;;;;;56.63;26.45;;;;;;;-0.45;86.24;100335.16;1855609;77;25673;-54
2021/01/02 07:05:49;;;;;;;56.90;27.25;;;;;;;-0.46;86.27;100330.08;1855522;77;25671;-46
2021/01/02 07:08:43;;;;;;;56.45;25.80;;;;;;;-0.46;86.29;100340.71;1825403;77;25620;-46
2021/01/02 07:11:44;;;;;;;46.70;24.18;;;;;;;-0.45;86.28;100341.01;1855520;77;25572;-52
2021/01/02 07:14:24;;;;;;;61.83;26.07;;;;;;;-0.48;86.14;100345.45;1855420;77;25693;-51
2021/01/02 07:17:06;;;;;;;55.55;24.30;;;;;;;-0.53;86.15;100338.17;1855592;77;25652;-46
2021/01/02 07:19:42;;;;;;;60.23;25.52;;;;;;;-0.56;86.21;100350.62;1855540;77;26717;-52
2021/01/02 07:22:24;;;;;;;53.52;23.40;;;;;;;-0.58;86.29;100351.36;1855469;77;25714;-55
2021/01/02 07:25:08;;;;;;;58.15;24.67;;;;;;;-0.60;86.33;100342.81;1855587;77;25601;-45
2021/01/02 07:27:40;;;;;;;61.53;26.52;;;;;;;-0.63;86.33;100344.11;1855421;77;25582;-45
2021/01/02 07:30:14;;;;;;;62.17;24.60;;;;;;;-0.64;86.34;100353.63;1855571;77;25612;-48
2021/01/02 07:32:44;;;;;;;52.03;23.98;;;;;;;-0.66;86.48;100360.51;1855480;77;26335;-53
2021/01/02 07:35:15;;;;;;;54.70;24.10;;;;;;;-0.66;86.53;100361.84;1855446;77;25742;-56
2021/01/02 07:37:45;;;;;;;60.48;25.12;;;;;;;-0.67;86.51;100363.39;1855698;77;25647;-44
2021/01/02 07:40:19;;;;;;;59.00;26.55;;;;;;;-0.67;86.58;100366.05;1855593;77;25576;-46
2021/01/02 07:42:54;;;;;;;59.53;25.70;;;;;;;-0.64;86.69;100373.03;1855514;77;26214;-48
2021/01/02 07:45:26;;;;;;;58.85;25.62;;;;;;;-0.64;86.65;100388.97;1855479;77;25741;-56
2021/01/02 07:47:56;;;;;;;60.48;26.65;;;;;;;-0.67;86.49;100379.33;1855466;77;25811;-45
2021/01/02 07:50:28;;;;;;;;;;;;;;;-0.70;86.57;100383.77;1858202;77;25632;-49
2021/01/02 07:53:00;;;;;;;63.33;24.95;;;;;;;-0.70;86.64;100380.59;1855527;77;25691;-56
2021/01/02 07:55:32;;;;;;;59.60;26.30;;;;;;;-0.71;86.71;100382.17;1855478;77;25735;-46
2021/01/02 07:58:03;;;;;;;61.20;25.90;;;;;;;-0.70;86.70;100383.77;1855132;77;25894;-47
2021/01/02 08:00:30;;;;;;;56.63;24.98;;;;;;;-0.69;86.82;100379.56;1855435;77;25568;-47
2021/01/02 08:03:07;;;;;;;66.72;27.52;;;;;;;-0.66;86.94;100388.41;1855409;77;25651;-48
2021/01/02 08:05:34;;;;;;;58.75;24.77;;;;;;;-0.61;86.91;100395.69;1855433;77;25645;-50
2021/01/02 08:08:07;;;;;;;60.98;25.52;;;;;;;-0.61;86.76;100395.69;1855487;77;25722;-52
2021/01/02 08:10:36;;;;;;;64.58;26.80;;;;;;;-0.60;86.74;100394.62;1855053;77;25965;-54
2021/01/02 08:13:03;;;;;;;61.18;26.95;;;;;;;-0.61;86.69;100397.02;1854789;77;25934;-49
2021/01/02 08:15:34;;;;;;;63.70;25.85;;;;;;;-0.60;86.71;100397.28;1854869;77;25553;-56
2021/01/02 08:18:04;;;;;;;66.82;27.20;;;;;;;-0.59;86.75;100401.57;1854842;77;25657;-48
2021/01/02 08:20:31;;;;;;;59.67;26.27;;;;;;;-0.58;86.62;100404.00;1854877;77;25545;-53
2021/01/02 08:22:58;;;;;;;56.95;26.10;;;;;;;-0.57;86.73;100404.27;1854911;77;26312;-51
2021/01/02 08:25:27;;;;;;;59.65;26.68;;;;;;;-0.54;86.66;100406.20;1823967;77;25720;-49
2021/01/02 08:27:56;;;;;;;58.55;26.55;;;;;;;-0.52;86.71;100412.08;1854840;77;25610;-47
2021/01/02 08:30:22;;;;;;;65.45;28.23;;;;;;;-0.49;86.80;100411.62;1854929;77;25654;-54
2021/01/02 08:32:55;;;;;;;62.88;26.65;;;;;;;-0.43;86.86;100426.09;1854808;77;25640;-47
2021/01/02 08:35:37;;;;;;;56.30;25.77;;;;;;;-0.42;86.69;100429.58;1854916;77;26122;-55
2021/01/02 08:38:10;;;;;;;54.50;23.52;;;;;;;-0.41;86.62;100435.16;1854763;77;25558;-52
2021/01/02 08:40:49;;;;;;;60.52;25.62;;;;;;;-0.42;86.43;100448.98;1854760;77;26075;-51
2021/01/02 08:43:25;;;;;;;55.40;25.12;;;;;;;-0.43;86.36;100454.00;1854866;77;25728;-51
2021/01/02 08:46:04;;;;;;;59.45;24.55;;;;;;;-0.44;86.34;100454.26;1854862;77;25645;-46
2021/01/02 08:48:31;;;;;;;67.58;26.70;;;;;;;-0.44;86.33;100458.24;1854844;77;25947;-50
2021/01/02 08:50:59;;;;;;;63.10;25.27;;;;;;;-0.43;86.25;100455.86;1854726;77;25753;-45
2021/01/02 08:53:36;;;;;;;60.90;25.90;;;;;;;-0.42;86.40;100452.97;1854770;77;25556;-45
2021/01/02 08:56:24;;;;;;;59.65;26.25;;;;;;;-0.39;86.37;100453.84;1854783;77;25617;-47
2021/01/02 08:58:52;;;;;;;57.13;25.30;;;;;;;-0.35;86.51;100459.50;1854877;77;25685;-54
2021/01/02 09:01:19;;;;;;;59.93;27.70;;;;;;;-0.31;86.42;100454.52;1854823;77;25758;-52
2021/01/02 09:03:47;;;;;;;56.73;24.37;;;;;;;-0.27;86.43;100447.72;1854780;77;25644;-48
2021/01/02 09:06:24;;;;;;;53.60;23.70;;;;;;;-0.23;86.43;100451.52;1854833;77;25888;-51
2021/01/02 09:09:06;;;;;;;58.25;27.20;;;;;;;-0.20;86.43;100457.17;1854742;77;25684;-46
2021/01/02 09:11:50;;;;;;;62.35;26.60;;;;;;;-0.12;86.45;100448.54;1854879;77;25785;-50
2021/01/02 09:14:18;;;;;;;57.08;25.48;;;;;;;-0.09;86.21;100457.39;1854820;77;26665;-47
2021/01/02 09:17:07;;;;;;;52.30;24.52;;;;;;;-0.10;85.99;100457.08;1837408;77;25622;-56
2021/01/02 09:19:34;;;;;;;57.83;25.50;;;;;;;-0.06;86.05;100458.25;1821126;78;25646;-56
2021/01/02 09:22:01;;;;;;;57.58;25.10;;;;;;;-0.01;86.26;100452.51;1821088;78;25629;-55
2021/01/02 09:24:28;;;;;;;52.62;25.00;;;;;;;0.06;86.36;100459.56;1821143;78;25582;-53
2021/01/02 09:26:54;;;;;;;52.73;25.30;;;;;;;0.14;86.32;100458.67;1821266;78;25776;-56
2021/01/02 09:29:21;;;;;;;59.83;26.45;;;;;;;0.17;86.05;100450.22;1783869;78;26295;-54
2021/01/02 09:31:48;;;;;;;54.18;24.27;;;;;;;0.20;85.85;100446.27;1820804;78;25605;-57
2021/01/02 09:34:15;;;;;;;59.85;25.75;;;;;;;0.23;85.80;100445.00;1820345;78;25741;-55
2021/01/02 09:36:42;;;;;;;49.98;23.70;;;;;;;0.31;86.08;100442.77;1782102;80;25652;-55
2021/01/02 09:39:09;;;;;;;48.17;23.73;;;;;;;0.40;86.08;100438.41;1782167;80;28019;-51
2021/01/02 09:41:36;;;;;;;54.67;25.45;;;;;;;0.43;85.76;100441.93;1782018;80;25686;-56
2021/01/02 09:44:03;;;;;;;60.03;27.20;;;;;;;0.49;85.91;100447.08;1754546;81;25639;-56
2021/01/02 09:46:30;;;;;;;53.35;24.95;;;;;;;0.52;85.64;100444.48;1754524;81;25623;-55
2021/01/02 09:48:58;;;;;;;61.80;27.22;;;;;;;0.53;85.36;100445.58;1782192;80;25611;-56
2021/01/02 09:51:30;;;;;;;58.10;27.05;;;;;;;0.59;85.47;100441.68;1754689;81;26891;-57
2021/01/02 09:53:57;;;;;;;69.55;29.35;;;;;;;0.57;85.15;100447.77;1752103;81;25286;-56
2021/01/02 09:56:24;;;;;;;68.40;31.55;;;;;;;0.57;85.17;100440.58;1783704;79;25552;-57
2021/01/02 09:58:51;;;;;;;64.97;29.65;;;;;;;0.61;85.37;100451.02;1762911;80;25708;-57
2021/01/02 10:01:18;;;;;;;63.95;28.75;;;;;;;0.61;85.14;100443.57;1783049;80;25695;-51
2021/01/02 10:03:45;;;;;;;64.20;29.70;;;;;;;0.64;85.21;100441.77;1783228;80;26319;-57
2021/01/02 10:06:12;;;;;;;62.40;28.42;;;;;;;0.63;84.83;100449.46;1783267;80;25619;-56
2021/01/02 10:08:39;;;;;;;64.12;28.85;;;;;;;0.58;84.73;100443.55;1783241;80;25652;-59
2021/01/02 10:11:06;;;;;;;65.95;29.60;;;;;;;0.53;84.52;100444.78;1783082;80;25663;-56
2021/01/02 10:13:33;;;;;;;65.42;28.12;;;;;;;0.50;84.60;100447.91;1783272;80;26272;-57
2021/01/02 10:16:00;;;;;;;60.48;29.20;;;;;;;0.47;84.51;100446.52;1783099;80;26702;-57
2021/01/02 10:18:27;;;;;;;68.10;31.20;;;;;;;0.46;84.80;100446.75;1783088;80;25588;-55
2021/01/02 10:20:53;;;;;;;55.70;26.23;;;;;;;0.48;85.05;100448.14;1783172;80;26283;-57
2021/01/02 10:23:20;;;;;;;58.38;27.05;;;;;;;0.49;84.77;100446.28;1783128;80;25689;-59
2021/01/02 10:25:47;;;;;;;61.10;27.85;;;;;;;0.50;84.91;100444.72;1783223;80;25623;-58
2021/01/02 10:28:13;;;;;;;60.52;27.00;;;;;;;0.52;84.76;100435.16;1783211;80;26151;-57
2021/01/02 10:30:40;;;;;;;58.42;27.30;;;;;;;0.56;84.84;100426.98;1782941;80;25647;-57
2021/01/02 10:33:07;;;;;;;53.90;26.73;;;;;;;0.53;84.56;100431.47;1783190;80;25733;-57
2021/01/02 10:35:33;;;;;;;58.17;27.98;;;;;;;0.57;84.80;100431.80;1783160;80;25651;-56
2021/01/02 10:38:00;;;;;;;64.30;28.17;;;;;;;0.59;84.81;100432.36;1783242;80;25665;-58
2021/01/02 10:40:27;;;;;;;67.37;29.23;;;;;;;0.61;84.80;100427.06;1783122;80;26999;-58
2021/01/02 10:42:53;;;;;;;66.90;30.12;;;;;;;0.62;84.61;100423.37;1783101;80;25700;-56
2021/01/02 10:45:20;;;;;;;63.00;29.57;;;;;;;0.65;84.76;100428.22;1783070;80;26384;-50
2021/01/02 10:47:47;;;;;;;59.95;28.25;;;;;;;0.65;84.61;100421.56;1783095;80;26102;-55
2021/01/02 10:50:15;;;;;;;64.30;28.83;;;;;;;0.67;84.79;100414.67;1783182;80;26388;-57
2021/01/02 10:52:42;;;;;;;63.58;28.80;;;;;;;0.71;84.77;100407.27;1783192;80;25930;-53
2021/01/02 10:55:10;;;;;;;70.90;31.68;;;;;;;0.75;84.83;100408.96;1782971;80;25839;-56
2021/01/02 10:57:37;;;;;;;65.95;32.25;;;;;;;0.76;84.42;100412.42;1783164;80;25739;-55
2021/01/02 11:00:07;;;;;;;71.80;33.02;;;;;;;0.74;84.45;100402.80;1782537;80;25841;-53
2021/01/02 11:02:34;;;;;;;71.07;31.15;;;;;;;0.79;84.78;100416.73;1786002;80;25702;-56
2021/01/02 11:05:00;;;;;;;68.00;32.78;;;;;;;0.80;84.54;100401.05;1783430;80;25691;-56
2021/01/02 11:07:27;;;;;;;67.85;30.70;;;;;;;0.84;84.87;100413.36;1785807;80;26459;-56
2021/01/02 11:09:54;;;;;;;66.47;30.40;;;;;;;0.87;84.74;100414.19;1783419;80;25657;-55
2021/01/02 11:12:23;;;;;;;69.85;30.68;;;;;;;0.87;84.52;100407.02;1785865;80;25743;-53
2021/01/02 11:14:52;;;;;;;62.93;31.05;;;;;;;0.86;84.30;100405.40;1783146;80;25765;-54
2021/01/02 11:17:19;;;;;;;66.82;30.68;;;;;;;0.86;84.31;100401.94;1786107;80;25789;-55
2021/01/02 11:19:45;;;;;;;63.70;30.92;;;;;;;0.84;84.25;100399.52;1735339;79;26315;-54
2021/01/02 11:22:13;;;;;;;65.15;31.40;;;;;;;0.86;84.41;100392.62;1704288;82;26020;-54
2021/01/02 11:24:43;;;;;;;68.97;31.17;;;;;;;0.88;84.53;100397.97;1730659;82;26341;-55
2021/01/02 11:27:10;;;;;;;;;;;;;;;0.91;84.44;100408.14;1733385;82;25820;-56
2021/01/02 11:29:37;;;;;;;65.28;30.97;;;;;;;0.92;84.39;100404.98;1730522;82;26681;-57
2021/01/02 11:32:09;;;;;;;68.47;31.25;;;;;;;0.93;84.37;100418.03;1699775;84;26235;-50
2021/01/02 11:34:36;;;;;;;66.45;30.82;;;;;;;0.96;84.44;100405.30;1730597;82;25754;-53
2021/01/02 11:37:05;;;;;;;66.40;31.37;;;;;;;1.00;84.54;100399.75;1699838;84;25667;-54